PWSweather.com
Personal Weather Stations
Station Observations
CW4438
Little Flock, AR 72756

Little Flock, AR 72756

Lat: 36.39, Lon: -94.14

Elevation: 1278

Station Type: Davis/Vantage Pro

Latest ConditionsUpdated 8:05:08 AM CST Sunday, Jan 22, 2017
Currently Today's Max Today's Min Today's Average
Temperature 49.9°F9.9°C 52.0°F11.1°C 49.3°F9.6°C 50.4°F10.2°C
Dew Point 49.1°F9.5°C 50.6°F10.3°C 48.2°F9.0°C 49.4°F9.7°C
Winds Calm Calm 4.0 mph NW6.4 kmh NW - 0.2 mph 0.3 kmh
Wind Gusts -- -- - -
Humidity 97% 97% 94% 96%
Pressure 29.35 in993.9 mb 29.37 in994.6 mb 29.31 in992.6 mb -
Hour Temp Dew Point Humidity Winds Wind Gusts Pressure Precip Precip Rate Daily Precip Total
08:05 AM 49.9°F9.9°C 49.1°F9.5°C 97% Calm Calm -- 29.35 in993.9 mb 0.07 in1.8 mm 0.00 in0.0 mm 0.20 in5.1 mm
07:50 AM 49.9°F9.9°C 49.1°F9.5°C 97% 1.0 mph NW1.6 kmh NW -- 29.34 in993.6 mb 0.09 in2.3 mm 0.00 in0.0 mm 0.20 in5.1 mm
07:45 AM 49.9°F9.9°C 49.1°F9.5°C 97% 1.0 mph NW1.6 kmh NW -- 29.34 in993.6 mb 0.10 in2.5 mm 0.00 in0.0 mm 0.20 in5.1 mm
07:30 AM 50.0°F10.0°C 49.2°F9.6°C 97% Calm Calm -- 29.34 in993.6 mb 0.10 in2.5 mm 0.00 in0.0 mm 0.20 in5.1 mm
07:25 AM 50.0°F10.0°C 49.2°F9.6°C 97% 2.0 mph N3.2 kmh N -- 29.33 in993.2 mb 0.10 in2.5 mm 0.12 in3.0 mm 0.20 in5.1 mm
07:10 AM 50.0°F10.0°C 49.2°F9.6°C 97% Calm Calm -- 29.33 in993.2 mb 0.07 in1.8 mm 0.00 in0.0 mm 0.17 in4.3 mm
07:05 AM 50.0°F10.0°C 49.2°F9.6°C 97% Calm Calm -- 29.33 in993.2 mb 0.07 in1.8 mm 0.03 in0.8 mm 0.17 in4.3 mm
06:50 AM 50.0°F10.0°C 49.2°F9.6°C 97% Calm Calm -- 29.34 in993.6 mb 0.05 in1.3 mm 0.00 in0.0 mm 0.15 in3.8 mm
06:45 AM 50.0°F10.0°C 49.2°F9.6°C 97% Calm Calm -- 29.34 in993.6 mb 0.05 in1.3 mm 0.08 in2.0 mm 0.15 in3.8 mm
06:30 AM 49.9°F9.9°C 49.1°F9.5°C 97% 2.0 mph NW3.2 kmh NW -- 29.33 in993.2 mb 0.03 in0.8 mm 0.00 in0.0 mm 0.13 in3.3 mm
06:25 AM 49.9°F9.9°C 49.1°F9.5°C 97% Calm Calm -- 29.33 in993.2 mb 0.03 in0.8 mm 0.00 in0.0 mm 0.13 in3.3 mm
06:10 AM 49.8°F9.9°C 49.0°F9.4°C 97% 1.0 mph NNW1.6 kmh NNW -- 29.33 in993.2 mb 0.03 in0.8 mm 0.00 in0.0 mm 0.13 in3.3 mm
06:05 AM 49.8°F9.9°C 49.0°F9.4°C 97% 4.0 mph NW6.4 kmh NW -- 29.33 in993.2 mb 0.03 in0.8 mm 0.00 in0.0 mm 0.13 in3.3 mm
05:50 AM 49.8°F9.9°C 49.0°F9.4°C 97% Calm Calm -- 29.32 in992.9 mb 0.03 in0.8 mm 0.00 in0.0 mm 0.13 in3.3 mm
05:45 AM 49.8°F9.9°C 49.0°F9.4°C 97% Calm Calm -- 29.32 in992.9 mb 0.04 in1.0 mm 0.00 in0.0 mm 0.13 in3.3 mm
05:30 AM 49.9°F9.9°C 49.1°F9.5°C 97% Calm Calm -- 29.32 in992.9 mb 0.05 in1.3 mm 0.00 in0.0 mm 0.13 in3.3 mm
05:25 AM 50.0°F10.0°C 49.2°F9.6°C 97% Calm Calm -- 29.32 in992.9 mb 0.06 in1.5 mm 0.00 in0.0 mm 0.13 in3.3 mm
05:10 AM 50.3°F10.2°C 49.5°F9.7°C 97% Calm Calm -- 29.32 in992.9 mb 0.08 in2.0 mm 0.00 in0.0 mm 0.13 in3.3 mm
05:05 AM 50.4°F10.2°C 49.6°F9.8°C 97% Calm Calm -- 29.32 in992.9 mb 0.08 in2.0 mm 0.01 in0.3 mm 0.13 in3.3 mm
04:50 AM 50.7°F10.4°C 49.9°F9.9°C 97% Calm Calm -- 29.33 in993.2 mb 0.07 in1.8 mm 0.00 in0.0 mm 0.12 in3.0 mm
04:45 AM 50.8°F10.4°C 50.0°F10.0°C 97% Calm Calm -- 29.33 in993.2 mb 0.07 in1.8 mm 0.08 in2.0 mm 0.12 in3.0 mm
04:30 AM 50.8°F10.4°C 50.0°F10.0°C 97% Calm Calm -- 29.33 in993.2 mb 0.05 in1.3 mm 0.12 in3.0 mm 0.10 in2.5 mm
04:25 AM 50.8°F10.4°C 50.0°F10.0°C 97% Calm Calm -- 29.32 in992.9 mb 0.04 in1.0 mm 0.16 in4.1 mm 0.09 in2.3 mm
04:10 AM 50.9°F10.5°C 50.1°F10.1°C 97% Calm Calm -- 29.32 in992.9 mb 0.00 in0.0 mm 0.00 in0.0 mm 0.05 in1.3 mm
04:05 AM 50.9°F10.5°C 50.1°F10.1°C 97% Calm Calm -- 29.32 in992.9 mb 0.00 in0.0 mm 0.00 in0.0 mm 0.05 in1.3 mm
03:50 AM 50.5°F10.3°C 49.7°F9.8°C 97% Calm Calm -- 29.31 in992.6 mb 0.00 in0.0 mm 0.00 in0.0 mm 0.05 in1.3 mm
03:45 AM 50.3°F10.2°C 49.5°F9.7°C 97% Calm Calm -- 29.31 in992.6 mb 0.00 in0.0 mm 0.00 in0.0 mm 0.05 in1.3 mm
03:30 AM 49.9°F9.9°C 49.1°F9.5°C 97% Calm Calm -- 29.31 in992.6 mb 0.00 in0.0 mm 0.00 in0.0 mm 0.05 in1.3 mm
03:25 AM 49.7°F9.8°C 48.9°F9.4°C 97% Calm Calm -- 29.31 in992.6 mb 0.00 in0.0 mm 0.00 in0.0 mm 0.05 in1.3 mm
03:10 AM 49.3°F9.6°C 48.2°F9.0°C 96% Calm Calm -- 29.32 in992.9 mb 0.00 in0.0 mm 0.00 in0.0 mm 0.05 in1.3 mm
03:05 AM 49.3°F9.6°C 48.2°F9.0°C 96% Calm Calm -- 29.32 in992.9 mb 0.00 in0.0 mm 0.00 in0.0 mm 0.05 in1.3 mm
02:50 AM 49.4°F9.7°C 48.3°F9.1°C 96% Calm Calm -- 29.31 in992.6 mb 0.00 in0.0 mm 0.00 in0.0 mm 0.05 in1.3 mm
02:45 AM 49.6°F9.8°C 48.5°F9.2°C 96% Calm Calm -- 29.31 in992.6 mb 0.00 in0.0 mm 0.00 in0.0 mm 0.05 in1.3 mm
02:30 AM 49.9°F9.9°C 48.8°F9.3°C 96% Calm Calm -- 29.32 in992.9 mb 0.00 in0.0 mm 0.00 in0.0 mm 0.05 in1.3 mm
02:25 AM 50.2°F10.1°C 49.1°F9.5°C 96% Calm Calm -- 29.32 in992.9 mb 0.00 in0.0 mm 0.00 in0.0 mm 0.05 in1.3 mm
02:10 AM 50.6°F10.3°C 49.5°F9.7°C 96% Calm Calm -- 29.32 in992.9 mb 0.00 in0.0 mm 0.00 in0.0 mm 0.05 in1.3 mm
02:05 AM 50.5°F10.3°C 49.4°F9.7°C 96% Calm Calm -- 29.32 in992.9 mb 0.01 in0.3 mm 0.00 in0.0 mm 0.05 in1.3 mm
01:50 AM 50.7°F10.4°C 49.6°F9.8°C 96% Calm Calm -- 29.32 in992.9 mb 0.01 in0.3 mm 0.00 in0.0 mm 0.05 in1.3 mm
01:45 AM 50.9°F10.5°C 49.8°F9.9°C 96% Calm Calm -- 29.32 in992.9 mb 0.01 in0.3 mm 0.00 in0.0 mm 0.05 in1.3 mm
01:30 AM 51.3°F10.7°C 50.2°F10.1°C 96% Calm Calm -- 29.32 in992.9 mb 0.01 in0.3 mm 0.00 in0.0 mm 0.05 in1.3 mm
01:25 AM 51.4°F10.8°C 50.3°F10.2°C 96% Calm Calm -- 29.33 in993.2 mb 0.01 in0.3 mm 0.00 in0.0 mm 0.05 in1.3 mm
01:10 AM 51.1°F10.6°C 50.0°F10.0°C 96% Calm Calm -- 29.34 in993.6 mb 0.01 in0.3 mm 0.00 in0.0 mm 0.05 in1.3 mm
01:05 AM 51.2°F10.7°C 49.8°F9.9°C 95% Calm Calm -- 29.34 in993.6 mb 0.01 in0.3 mm 0.01 in0.3 mm 0.05 in1.3 mm
12:50 AM 51.4°F10.8°C 50.3°F10.2°C 96% Calm Calm -- 29.35 in993.9 mb 0.00 in0.0 mm 0.00 in0.0 mm 0.04 in1.0 mm
12:45 AM 51.2°F10.7°C 49.8°F9.9°C 95% Calm Calm -- 29.35 in993.9 mb 0.00 in0.0 mm 0.00 in0.0 mm 0.04 in1.0 mm
12:30 AM 51.7°F10.9°C 50.3°F10.2°C 95% Calm Calm -- 29.36 in994.2 mb 0.00 in0.0 mm 0.00 in0.0 mm 0.04 in1.0 mm
12:25 AM 51.8°F11.0°C 50.4°F10.2°C 95% Calm Calm -- 29.37 in994.6 mb 0.00 in0.0 mm 0.00 in0.0 mm 0.04 in1.0 mm
12:10 AM 52.0°F11.1°C 50.6°F10.3°C 95% Calm Calm -- 29.36 in994.2 mb 0.02 in0.5 mm 0.00 in0.0 mm 0.04 in1.0 mm
12:05 AM 52.0°F11.1°C 50.3°F10.2°C 94% Calm Calm -- 29.36 in994.2 mb 0.04 in1.0 mm 0.48 in12.2 mm 0.04 in1.0 mm